sensor_id;sensor_type;location;lat;lon;timestamp;temperature;humidity
52159;DHT22;38145;53.182;6.284;2022-08-11T00:01:16;17.90;99.90
52159;DHT22;38145;53.182;6.284;2022-08-11T00:03:49;17.90;99.90
52159;DHT22;38145;53.182;6.284;2022-08-11T00:06:31;17.90;99.90
52159;DHT22;38145;53.182;6.284;2022-08-11T00:09:00;17.80;99.90
52159;DHT22;38145;53.182;6.284;2022-08-11T00:11:37;17.80;99.90
52159;DHT22;38145;53.182;6.284;2022-08-11T00:14:17;17.80;99.90
52159;DHT22;38145;53.182;6.284;2022-08-11T00:16:53;17.80;99.90
52159;DHT22;38145;53.182;6.284;2022-08-11T00:19:22;17.80;99.90
52159;DHT22;38145;53.182;6.284;2022-08-11T00:21:49;17.70;99.90
52159;DHT22;38145;53.182;6.284;2022-08-11T00:24:16;17.80;99.90
52159;DHT22;38145;53.182;6.284;2022-08-11T00:26:48;17.80;99.90
52159;DHT22;38145;53.182;6.284;2022-08-11T00:29:15;17.70;99.90
52159;DHT22;38145;53.182;6.284;2022-08-11T00:31:46;17.80;99.90
52159;DHT22;38145;53.182;6.284;2022-08-11T00:34:16;17.80;99.90
52159;DHT22;38145;53.182;6.284;2022-08-11T00:36:50;17.70;99.90
52159;DHT22;38145;53.182;6.284;2022-08-11T00:39:20;17.80;99.90
52159;DHT22;38145;53.182;6.284;2022-08-11T00:45:02;17.80;99.90
52159;DHT22;38145;53.182;6.284;2022-08-11T00:47:45;17.70;99.90
52159;DHT22;38145;53.182;6.284;2022-08-11T00:50:26;17.70;99.90
52159;DHT22;38145;53.182;6.284;2022-08-11T00:53:23;17.60;99.90
52159;DHT22;38145;53.182;6.284;2022-08-11T01:04:23;17.40;99.90
52159;DHT22;38145;53.182;6.284;2022-08-11T01:07:15;17.40;99.90
52159;DHT22;38145;53.182;6.284;2022-08-11T01:12:23;17.30;99.90
52159;DHT22;38145;53.182;6.284;2022-08-11T01:15:38;17.30;99.90
52159;DHT22;38145;53.182;6.284;2022-08-11T01:21:17;17.20;99.90
52159;DHT22;38145;53.182;6.284;2022-08-11T01:27:09;16.90;99.90
52159;DHT22;38145;53.182;6.284;2022-08-11T01:37:29;16.70;99.90
52159;DHT22;38145;53.182;6.284;2022-08-11T01:40:09;16.50;99.90
52159;DHT22;38145;53.182;6.284;2022-08-11T01:43:09;16.50;99.90
52159;DHT22;38145;53.182;6.284;2022-08-11T01:46:06;16.50;99.90
52159;DHT22;38145;53.182;6.284;2022-08-11T01:51:26;16.40;99.90
52159;DHT22;38145;53.182;6.284;2022-08-11T01:54:08;16.30;99.90
52159;DHT22;38145;53.182;6.284;2022-08-11T01:56:50;16.30;99.90
52159;DHT22;38145;53.182;6.284;2022-08-11T01:59:27;16.30;99.90
52159;DHT22;38145;53.182;6.284;2022-08-11T02:04:35;16.10;99.90
52159;DHT22;38145;53.182;6.284;2022-08-11T02:07:38;16.10;99.90
52159;DHT22;38145;53.182;6.284;2022-08-11T02:10:22;16.10;99.90
52159;DHT22;38145;53.182;6.284;2022-08-11T02:13:19;16.10;99.90
52159;DHT22;38145;53.182;6.284;2022-08-11T02:15:53;16.10;99.90
52159;DHT22;38145;53.182;6.284;2022-08-11T02:18:33;16.10;99.90
52159;DHT22;38145;53.182;6.284;2022-08-11T02:21:28;16.10;99.90
52159;DHT22;38145;53.182;6.284;2022-08-11T02:24:24;16.20;99.90
52159;DHT22;38145;53.182;6.284;2022-08-11T02:27:01;16.20;99.90
52159;DHT22;38145;53.182;6.284;2022-08-11T02:29:43;16.10;99.90
52159;DHT22;38145;53.182;6.284;2022-08-11T02:32:22;16.10;99.90
52159;DHT22;38145;53.182;6.284;2022-08-11T02:35:18;16.10;99.90
52159;DHT22;38145;53.182;6.284;2022-08-11T02:40:32;16.00;99.90
52159;DHT22;38145;53.182;6.284;2022-08-11T02:43:08;16.00;99.90
52159;DHT22;38145;53.182;6.284;2022-08-11T02:45:47;16.00;99.90
52159;DHT22;38145;53.182;6.284;2022-08-11T02:48:37;15.90;99.90
52159;DHT22;38145;53.182;6.284;2022-08-11T02:54:16;15.70;99.90
52159;DHT22;38145;53.182;6.284;2022-08-11T03:02:19;15.50;99.90
52159;DHT22;38145;53.182;6.284;2022-08-11T03:04:58;15.50;99.90
52159;DHT22;38145;53.182;6.284;2022-08-11T03:13:14;15.60;99.90
52159;DHT22;38145;53.182;6.284;2022-08-11T03:16:15;15.60;99.90
52159;DHT22;38145;53.182;6.284;2022-08-11T03:19:29;15.40;99.90
52159;DHT22;38145;53.182;6.284;2022-08-11T03:22:31;15.40;99.90
52159;DHT22;38145;53.182;6.284;2022-08-11T03:27:57;15.30;99.90
52159;DHT22;38145;53.182;6.284;2022-08-11T03:30:50;15.30;99.90
52159;DHT22;38145;53.182;6.284;2022-08-11T03:33:23;15.30;99.90
52159;DHT22;38145;53.182;6.284;2022-08-11T03:36:22;15.30;99.90
52159;DHT22;38145;53.182;6.284;2022-08-11T03:39:09;15.40;99.90
52159;DHT22;38145;53.182;6.284;2022-08-11T03:44:51;15.30;99.90
52159;DHT22;38145;53.182;6.284;2022-08-11T03:47:36;15.30;99.90
52159;DHT22;38145;53.182;6.284;2022-08-11T03:50:26;15.30;99.90
52159;DHT22;38145;53.182;6.284;2022-08-11T03:53:15;15.30;99.90
52159;DHT22;38145;53.182;6.284;2022-08-11T04:01:27;15.40;99.90
52159;DHT22;38145;53.182;6.284;2022-08-11T04:04:16;15.40;99.90
52159;DHT22;38145;53.182;6.284;2022-08-11T04:09:48;15.20;99.90
52159;DHT22;38145;53.182;6.284;2022-08-11T04:12:37;15.30;99.90
52159;DHT22;38145;53.182;6.284;2022-08-11T04:18:19;15.20;99.90
52159;DHT22;38145;53.182;6.284;2022-08-11T04:26:52;15.00;99.90
52159;DHT22;38145;53.182;6.284;2022-08-11T04:32:38;15.10;99.90
52159;DHT22;38145;53.182;6.284;2022-08-11T04:35:31;15.10;99.90
52159;DHT22;38145;53.182;6.284;2022-08-11T04:38:30;15.20;99.90
52159;DHT22;38145;53.182;6.284;2022-08-11T04:41:28;15.20;99.90
52159;DHT22;38145;53.182;6.284;2022-08-11T04:44:06;15.30;99.90
52159;DHT22;38145;53.182;6.284;2022-08-11T04:47:21;15.20;99.90
52159;DHT22;38145;53.182;6.284;2022-08-11T04:53:26;15.10;99.90
52159;DHT22;38145;53.182;6.284;2022-08-11T04:56:17;15.00;99.90
52159;DHT22;38145;53.182;6.284;2022-08-11T04:59:33;15.00;99.90
52159;DHT22;38145;53.182;6.284;2022-08-11T05:02:40;15.10;99.90
52159;DHT22;38145;53.182;6.284;2022-08-11T05:05:34;15.10;99.90
52159;DHT22;38145;53.182;6.284;2022-08-11T05:11:27;15.30;99.90
52159;DHT22;38145;53.182;6.284;2022-08-11T05:14:23;15.20;99.90
52159;DHT22;38145;53.182;6.284;2022-08-11T05:17:16;15.20;99.90
52159;DHT22;38145;53.182;6.284;2022-08-11T05:20:09;15.10;99.90
52159;DHT22;38145;53.182;6.284;2022-08-11T05:22:56;15.20;99.90
52159;DHT22;38145;53.182;6.284;2022-08-11T05:25:46;15.10;99.90
52159;DHT22;38145;53.182;6.284;2022-08-11T05:28:32;15.30;99.90
52159;DHT22;38145;53.182;6.284;2022-08-11T05:31:23;15.30;99.90
52159;DHT22;38145;53.182;6.284;2022-08-11T05:34:20;15.30;99.90
52159;DHT22;38145;53.182;6.284;2022-08-11T05:37:11;15.40;99.90
52159;DHT22;38145;53.182;6.284;2022-08-11T05:39:44;15.50;99.90
52159;DHT22;38145;53.182;6.284;2022-08-11T05:42:32;15.40;99.90
52159;DHT22;38145;53.182;6.284;2022-08-11T05:45:18;15.50;99.90
52159;DHT22;38145;53.182;6.284;2022-08-11T05:48:03;15.50;99.90
52159;DHT22;38145;53.182;6.284;2022-08-11T05:50:58;15.70;99.90
52159;DHT22;38145;53.182;6.284;2022-08-11T05:53:48;15.80;99.90
52159;DHT22;38145;53.182;6.284;2022-08-11T05:56:38;15.90;99.90
52159;DHT22;38145;53.182;6.284;2022-08-11T05:59:13;15.90;99.90
52159;DHT22;38145;53.182;6.284;2022-08-11T06:01:41;16.00;99.90
52159;DHT22;38145;53.182;6.284;2022-08-11T06:04:21;16.20;99.90
52159;DHT22;38145;53.182;6.284;2022-08-11T06:06:55;16.20;99.90
52159;DHT22;38145;53.182;6.284;2022-08-11T06:09:27;16.30;99.90
52159;DHT22;38145;53.182;6.284;2022-08-11T06:11:58;16.40;99.90
52159;DHT22;38145;53.182;6.284;2022-08-11T06:14:25;16.60;99.90
52159;DHT22;38145;53.182;6.284;2022-08-11T06:16:56;16.60;99.90
52159;DHT22;38145;53.182;6.284;2022-08-11T06:19:33;16.80;99.90
52159;DHT22;38145;53.182;6.284;2022-08-11T06:22:02;16.90;99.90
52159;DHT22;38145;53.182;6.284;2022-08-11T06:24:28;17.00;99.90
52159;DHT22;38145;53.182;6.284;2022-08-11T06:26:57;17.00;99.90
52159;DHT22;38145;53.182;6.284;2022-08-11T06:29:25;17.10;99.90
52159;DHT22;38145;53.182;6.284;2022-08-11T06:31:56;17.20;99.90
52159;DHT22;38145;53.182;6.284;2022-08-11T06:37:52;17.30;99.90
52159;DHT22;38145;53.182;6.284;2022-08-11T06:43:17;17.50;99.90
52159;DHT22;38145;53.182;6.284;2022-08-11T06:45:56;17.60;99.90
52159;DHT22;38145;53.182;6.284;2022-08-11T06:48:31;17.70;99.90
52159;DHT22;38145;53.182;6.284;2022-08-11T06:51:02;17.70;99.90
52159;DHT22;38145;53.182;6.284;2022-08-11T06:53:49;17.80;99.90
52159;DHT22;38145;53.182;6.284;2022-08-11T06:56:26;18.00;99.90
52159;DHT22;38145;53.182;6.284;2022-08-11T06:59:11;18.20;99.90
52159;DHT22;38145;53.182;6.284;2022-08-11T07:05:02;18.30;99.90
52159;DHT22;38145;53.182;6.284;2022-08-11T07:11:40;18.60;99.90
52159;DHT22;38145;53.182;6.284;2022-08-11T07:14:29;18.70;99.90
52159;DHT22;38145;53.182;6.284;2022-08-11T07:17:18;19.00;99.90
52159;DHT22;38145;53.182;6.284;2022-08-11T07:19:52;19.30;99.90
52159;DHT22;38145;53.182;6.284;2022-08-11T07:22:37;19.60;99.90
52159;DHT22;38145;53.182;6.284;2022-08-11T07:25:24;20.00;99.90
52159;DHT22;38145;53.182;6.284;2022-08-11T07:28:13;20.40;99.90
52159;DHT22;38145;53.182;6.284;2022-08-11T07:31:06;21.00;99.90
52159;DHT22;38145;53.182;6.284;2022-08-11T07:33:48;21.30;99.90
52159;DHT22;38145;53.182;6.284;2022-08-11T07:36:16;21.60;99.90
52159;DHT22;38145;53.182;6.284;2022-08-11T07:38:43;22.00;99.90
52159;DHT22;38145;53.182;6.284;2022-08-11T07:41:14;22.10;99.90
52159;DHT22;38145;53.182;6.284;2022-08-11T07:43:43;22.40;99.90
52159;DHT22;38145;53.182;6.284;2022-08-11T07:46:10;22.80;99.90
52159;DHT22;38145;53.182;6.284;2022-08-11T07:48:56;23.10;99.90
52159;DHT22;38145;53.182;6.284;2022-08-11T07:51:43;23.30;99.90
52159;DHT22;38145;53.182;6.284;2022-08-11T07:54:28;23.50;99.90
52159;DHT22;38145;53.182;6.284;2022-08-11T07:56:56;23.70;99.90
52159;DHT22;38145;53.182;6.284;2022-08-11T07:59:23;23.90;99.90
52159;DHT22;38145;53.182;6.284;2022-08-11T08:02:10;24.10;99.90
52159;DHT22;38145;53.182;6.284;2022-08-11T08:04:56;24.30;99.90
52159;DHT22;38145;53.182;6.284;2022-08-11T08:07:41;24.40;99.90
52159;DHT22;38145;53.182;6.284;2022-08-11T08:10:27;24.60;99.90
52159;DHT22;38145;53.182;6.284;2022-08-11T08:13:13;24.90;99.90
52159;DHT22;38145;53.182;6.284;2022-08-11T08:15:59;25.20;99.90
52159;DHT22;38145;53.182;6.284;2022-08-11T08:18:44;25.50;99.90
52159;DHT22;38145;53.182;6.284;2022-08-11T08:21:12;25.80;99.90
52159;DHT22;38145;53.182;6.284;2022-08-11T08:23:42;25.80;99.90
52159;DHT22;38145;53.182;6.284;2022-08-11T08:26:12;25.90;99.90
52159;DHT22;38145;53.182;6.284;2022-08-11T08:29:06;26.10;99.90
52159;DHT22;38145;53.182;6.284;2022-08-11T08:31:52;26.50;99.90
52159;DHT22;38145;53.182;6.284;2022-08-11T08:34:18;26.70;99.90
52159;DHT22;38145;53.182;6.284;2022-08-11T08:36:47;26.90;99.90
52159;DHT22;38145;53.182;6.284;2022-08-11T08:39:17;27.00;99.90
52159;DHT22;38145;53.182;6.284;2022-08-11T08:41:48;27.10;99.90
52159;DHT22;38145;53.182;6.284;2022-08-11T08:44:17;27.40;99.90
52159;DHT22;38145;53.182;6.284;2022-08-11T08:46:49;27.60;99.90
52159;DHT22;38145;53.182;6.284;2022-08-11T08:49:18;27.70;99.90
52159;DHT22;38145;53.182;6.284;2022-08-11T08:51:52;27.60;99.90
52159;DHT22;38145;53.182;6.284;2022-08-11T08:54:24;27.70;99.90
52159;DHT22;38145;53.182;6.284;2022-08-11T08:56:54;27.70;99.90
52159;DHT22;38145;53.182;6.284;2022-08-11T08:59:23;27.80;99.90
52159;DHT22;38145;53.182;6.284;2022-08-11T09:01:57;28.00;99.90
52159;DHT22;38145;53.182;6.284;2022-08-11T09:04:24;28.30;99.90
52159;DHT22;38145;53.182;6.284;2022-08-11T09:06:50;28.50;99.90
52159;DHT22;38145;53.182;6.284;2022-08-11T09:09:19;28.50;99.90
52159;DHT22;38145;53.182;6.284;2022-08-11T09:11:47;28.30;99.90
52159;DHT22;38145;53.182;6.284;2022-08-11T09:14:16;28.50;99.90
52159;DHT22;38145;53.182;6.284;2022-08-11T09:16:44;28.50;99.90
52159;DHT22;38145;53.182;6.284;2022-08-11T09:19:14;28.60;99.90
52159;DHT22;38145;53.182;6.284;2022-08-11T09:21:45;28.70;99.90
52159;DHT22;38145;53.182;6.284;2022-08-11T09:24:33;28.60;99.90
52159;DHT22;38145;53.182;6.284;2022-08-11T09:27:20;28.70;99.90
52159;DHT22;38145;53.182;6.284;2022-08-11T09:29:48;28.60;99.90
52159;DHT22;38145;53.182;6.284;2022-08-11T09:32:20;28.60;99.90
52159;DHT22;38145;53.182;6.284;2022-08-11T09:34:49;28.50;99.90
52159;DHT22;38145;53.182;6.284;2022-08-11T09:37:17;28.40;99.90
52159;DHT22;38145;53.182;6.284;2022-08-11T09:40:06;28.30;99.90
52159;DHT22;38145;53.182;6.284;2022-08-11T09:42:51;28.60;99.90
52159;DHT22;38145;53.182;6.284;2022-08-11T09:45:37;28.60;99.90
52159;DHT22;38145;53.182;6.284;2022-08-11T09:48:03;28.70;99.90
52159;DHT22;38145;53.182;6.284;2022-08-11T09:50:32;28.70;99.70
52159;DHT22;38145;53.182;6.284;2022-08-11T09:52:59;28.80;99.90
52159;DHT22;38145;53.182;6.284;2022-08-11T09:55:32;28.90;99.90
52159;DHT22;38145;53.182;6.284;2022-08-11T09:58:00;29.00;98.80
52159;DHT22;38145;53.182;6.284;2022-08-11T10:00:39;29.10;98.10
52159;DHT22;38145;53.182;6.284;2022-08-11T10:03:10;29.30;97.00
52159;DHT22;38145;53.182;6.284;2022-08-11T10:05:37;29.50;95.80
52159;DHT22;38145;53.182;6.284;2022-08-11T10:08:27;29.50;95.80
52159;DHT22;38145;53.182;6.284;2022-08-11T10:10:55;29.70;93.80
52159;DHT22;38145;53.182;6.284;2022-08-11T10:13:28;29.70;92.50
52159;DHT22;38145;53.182;6.284;2022-08-11T10:16:02;29.60;90.60
52159;DHT22;38145;53.182;6.284;2022-08-11T10:18:34;29.80;90.40
52159;DHT22;38145;53.182;6.284;2022-08-11T10:23:54;29.90;89.50
52159;DHT22;38145;53.182;6.284;2022-08-11T10:26:41;30.10;89.70
52159;DHT22;38145;53.182;6.284;2022-08-11T10:29:30;30.10;90.20
52159;DHT22;38145;53.182;6.284;2022-08-11T10:32:19;30.30;84.70
52159;DHT22;38145;53.182;6.284;2022-08-11T10:35:05;30.40;88.40
52159;DHT22;38145;53.182;6.284;2022-08-11T10:37:35;30.50;85.70
52159;DHT22;38145;53.182;6.284;2022-08-11T10:40:03;30.60;82.20
52159;DHT22;38145;53.182;6.284;2022-08-11T10:42:31;30.50;81.80
52159;DHT22;38145;53.182;6.284;2022-08-11T10:45:16;30.70;79.00
52159;DHT22;38145;53.182;6.284;2022-08-11T10:48:04;30.80;80.40
52159;DHT22;38145;53.182;6.284;2022-08-11T10:50:32;31.10;77.90
52159;DHT22;38145;53.182;6.284;2022-08-11T10:53:18;31.30;74.70
52159;DHT22;38145;53.182;6.284;2022-08-11T10:56:03;31.70;69.40
52159;DHT22;38145;53.182;6.284;2022-08-11T10:58:50;32.00;64.50
52159;DHT22;38145;53.182;6.284;2022-08-11T11:01:21;32.20;63.20
52159;DHT22;38145;53.182;6.284;2022-08-11T11:03:50;32.20;59.20
52159;DHT22;38145;53.182;6.284;2022-08-11T11:06:27;32.10;59.70
52159;DHT22;38145;53.182;6.284;2022-08-11T11:09:03;32.20;57.20
52159;DHT22;38145;53.182;6.284;2022-08-11T11:11:34;32.30;60.30
52159;DHT22;38145;53.182;6.284;2022-08-11T11:14:21;32.20;60.90
52159;DHT22;38145;53.182;6.284;2022-08-11T11:17:10;32.00;60.50
52159;DHT22;38145;53.182;6.284;2022-08-11T11:19:39;31.80;59.00
52159;DHT22;38145;53.182;6.284;2022-08-11T11:22:07;31.90;59.10
52159;DHT22;38145;53.182;6.284;2022-08-11T11:27:47;32.00;54.70
52159;DHT22;38145;53.182;6.284;2022-08-11T11:30:16;31.90;55.60
52159;DHT22;38145;53.182;6.284;2022-08-11T11:33:11;31.90;59.60
52159;DHT22;38145;53.182;6.284;2022-08-11T11:35:57;31.90;54.30
52159;DHT22;38145;53.182;6.284;2022-08-11T11:38:27;31.80;55.60
52159;DHT22;38145;53.182;6.284;2022-08-11T11:40:54;31.60;58.10
52159;DHT22;38145;53.182;6.284;2022-08-11T11:43:39;31.60;57.80
52159;DHT22;38145;53.182;6.284;2022-08-11T11:46:07;31.30;56.40
52159;DHT22;38145;53.182;6.284;2022-08-11T11:48:36;31.20;57.20
52159;DHT22;38145;53.182;6.284;2022-08-11T11:51:02;31.30;57.60
52159;DHT22;38145;53.182;6.284;2022-08-11T11:53:29;31.40;58.30
52159;DHT22;38145;53.182;6.284;2022-08-11T11:55:56;31.30;57.40
52159;DHT22;38145;53.182;6.284;2022-08-11T11:58:23;31.30;55.30
52159;DHT22;38145;53.182;6.284;2022-08-11T12:01:08;31.40;51.70
52159;DHT22;38145;53.182;6.284;2022-08-11T12:03:43;31.60;55.00
52159;DHT22;38145;53.182;6.284;2022-08-11T12:06:12;31.70;54.80
52159;DHT22;38145;53.182;6.284;2022-08-11T12:08:41;31.80;56.30
52159;DHT22;38145;53.182;6.284;2022-08-11T12:11:10;31.80;55.90
52159;DHT22;38145;53.182;6.284;2022-08-11T12:13:56;31.70;54.80
52159;DHT22;38145;53.182;6.284;2022-08-11T12:16:24;31.80;55.20
52159;DHT22;38145;53.182;6.284;2022-08-11T12:18:53;31.80;55.40
52159;DHT22;38145;53.182;6.284;2022-08-11T12:21:21;31.80;54.50
52159;DHT22;38145;53.182;6.284;2022-08-11T12:23:48;31.70;54.30
52159;DHT22;38145;53.182;6.284;2022-08-11T12:26:48;31.70;54.80
52159;DHT22;38145;53.182;6.284;2022-08-11T12:29:16;31.80;53.60
52159;DHT22;38145;53.182;6.284;2022-08-11T12:31:46;31.80;53.30
52159;DHT22;38145;53.182;6.284;2022-08-11T12:34:15;31.70;53.20
52159;DHT22;38145;53.182;6.284;2022-08-11T12:36:47;31.70;53.90
52159;DHT22;38145;53.182;6.284;2022-08-11T12:39:19;31.60;53.40
52159;DHT22;38145;53.182;6.284;2022-08-11T12:42:07;31.30;50.70
52159;DHT22;38145;53.182;6.284;2022-08-11T12:44:53;31.10;54.40
52159;DHT22;38145;53.182;6.284;2022-08-11T12:47:41;30.80;52.70
52159;DHT22;38145;53.182;6.284;2022-08-11T12:50:28;30.70;55.60
52159;DHT22;38145;53.182;6.284;2022-08-11T12:53:13;30.80;55.20
52159;DHT22;38145;53.182;6.284;2022-08-11T12:55:40;31.00;57.30
52159;DHT22;38145;53.182;6.284;2022-08-11T12:58:26;31.00;55.40
52159;DHT22;38145;53.182;6.284;2022-08-11T13:00:55;30.90;53.30
52159;DHT22;38145;53.182;6.284;2022-08-11T13:03:40;30.80;52.10
52159;DHT22;38145;53.182;6.284;2022-08-11T13:06:25;31.00;54.20
52159;DHT22;38145;53.182;6.284;2022-08-11T13:08:54;31.20;54.40
52159;DHT22;38145;53.182;6.284;2022-08-11T13:11:23;31.30;53.60
52159;DHT22;38145;53.182;6.284;2022-08-11T13:14:09;31.50;54.30
52159;DHT22;38145;53.182;6.284;2022-08-11T13:16:36;31.30;53.70
52159;DHT22;38145;53.182;6.284;2022-08-11T13:19:22;31.10;54.00
52159;DHT22;38145;53.182;6.284;2022-08-11T13:21:49;31.00;53.40
52159;DHT22;38145;53.182;6.284;2022-08-11T13:24:17;30.80;54.10
52159;DHT22;38145;53.182;6.284;2022-08-11T13:26:45;30.60;52.30
52159;DHT22;38145;53.182;6.284;2022-08-11T13:29:13;30.50;52.80
52159;DHT22;38145;53.182;6.284;2022-08-11T13:31:41;30.40;53.30
52159;DHT22;38145;53.182;6.284;2022-08-11T13:34:08;30.40;53.10
52159;DHT22;38145;53.182;6.284;2022-08-11T13:36:35;30.40;54.70
52159;DHT22;38145;53.182;6.284;2022-08-11T13:39:02;30.50;57.10
52159;DHT22;38145;53.182;6.284;2022-08-11T13:41:29;30.50;54.20
52159;DHT22;38145;53.182;6.284;2022-08-11T13:44:08;30.40;54.40
52159;DHT22;38145;53.182;6.284;2022-08-11T13:46:35;30.50;56.70
52159;DHT22;38145;53.182;6.284;2022-08-11T13:49:02;30.50;55.70
52159;DHT22;38145;53.182;6.284;2022-08-11T13:51:29;30.50;55.60
52159;DHT22;38145;53.182;6.284;2022-08-11T13:54:01;30.50;56.30
52159;DHT22;38145;53.182;6.284;2022-08-11T13:56:28;30.50;55.30
52159;DHT22;38145;53.182;6.284;2022-08-11T13:58:56;30.50;54.30
52159;DHT22;38145;53.182;6.284;2022-08-11T14:01:27;30.60;54.70
52159;DHT22;38145;53.182;6.284;2022-08-11T14:03:55;30.60;55.10
52159;DHT22;38145;53.182;6.284;2022-08-11T14:06:23;30.50;54.10
52159;DHT22;38145;53.182;6.284;2022-08-11T14:08:51;30.40;54.40
52159;DHT22;38145;53.182;6.284;2022-08-11T14:11:20;30.50;56.60
52159;DHT22;38145;53.182;6.284;2022-08-11T14:14:06;30.40;56.50
52159;DHT22;38145;53.182;6.284;2022-08-11T14:16:40;30.50;56.70
52159;DHT22;38145;53.182;6.284;2022-08-11T14:19:12;30.50;55.10
52159;DHT22;38145;53.182;6.284;2022-08-11T14:21:41;30.50;54.70
52159;DHT22;38145;53.182;6.284;2022-08-11T14:24:27;30.50;56.50
52159;DHT22;38145;53.182;6.284;2022-08-11T14:26:54;30.40;56.60
52159;DHT22;38145;53.182;6.284;2022-08-11T14:29:25;30.40;55.60
52159;DHT22;38145;53.182;6.284;2022-08-11T14:31:55;30.40;51.50
52159;DHT22;38145;53.182;6.284;2022-08-11T14:34:24;30.20;51.80
52159;DHT22;38145;53.182;6.284;2022-08-11T14:36:54;30.20;52.30
52159;DHT22;38145;53.182;6.284;2022-08-11T14:39:25;30.20;55.20
52159;DHT22;38145;53.182;6.284;2022-08-11T14:41:58;30.20;52.90
52159;DHT22;38145;53.182;6.284;2022-08-11T14:44:46;30.20;52.30
52159;DHT22;38145;53.182;6.284;2022-08-11T14:47:34;30.20;53.00
52159;DHT22;38145;53.182;6.284;2022-08-11T14:50:02;30.30;52.90
52159;DHT22;38145;53.182;6.284;2022-08-11T14:52:30;30.20;51.80
52159;DHT22;38145;53.182;6.284;2022-08-11T14:54:58;30.10;51.10
52159;DHT22;38145;53.182;6.284;2022-08-11T14:57:43;30.10;50.60
52159;DHT22;38145;53.182;6.284;2022-08-11T15:00:12;30.10;50.40
52159;DHT22;38145;53.182;6.284;2022-08-11T15:02:41;30.00;50.30
52159;DHT22;38145;53.182;6.284;2022-08-11T15:05:26;30.00;49.90
52159;DHT22;38145;53.182;6.284;2022-08-11T15:07:55;30.00;54.60
52159;DHT22;38145;53.182;6.284;2022-08-11T15:10:22;29.80;62.60
52159;DHT22;38145;53.182;6.284;2022-08-11T15:12:49;29.70;63.30
52159;DHT22;38145;53.182;6.284;2022-08-11T15:15:16;29.60;64.10
52159;DHT22;38145;53.182;6.284;2022-08-11T15:18:06;29.60;64.20
52159;DHT22;38145;53.182;6.284;2022-08-11T15:20:35;29.50;64.10
52159;DHT22;38145;53.182;6.284;2022-08-11T15:23:20;29.50;66.10
52159;DHT22;38145;53.182;6.284;2022-08-11T15:26:14;29.50;66.90
52159;DHT22;38145;53.182;6.284;2022-08-11T15:28:48;29.40;66.70
52159;DHT22;38145;53.182;6.284;2022-08-11T15:31:35;29.30;65.40
52159;DHT22;38145;53.182;6.284;2022-08-11T15:34:22;29.30;65.20
52159;DHT22;38145;53.182;6.284;2022-08-11T15:37:12;29.10;64.20
52159;DHT22;38145;53.182;6.284;2022-08-11T15:43:13;28.90;64.80
52159;DHT22;38145;53.182;6.284;2022-08-11T15:46:05;28.90;67.20
52159;DHT22;38145;53.182;6.284;2022-08-11T15:51:06;29.00;66.80
52159;DHT22;38145;53.182;6.284;2022-08-11T15:53:40;29.00;67.50
52159;DHT22;38145;53.182;6.284;2022-08-11T15:56:08;29.00;69.10
52159;DHT22;38145;53.182;6.284;2022-08-11T15:58:41;29.00;69.60
52159;DHT22;38145;53.182;6.284;2022-08-11T16:01:26;28.80;65.70
52159;DHT22;38145;53.182;6.284;2022-08-11T16:04:20;28.80;67.90
52159;DHT22;38145;53.182;6.284;2022-08-11T16:07:02;28.60;65.70
52159;DHT22;38145;53.182;6.284;2022-08-11T16:09:41;28.50;68.50
52159;DHT22;38145;53.182;6.284;2022-08-11T16:12:16;28.40;68.40
52159;DHT22;38145;53.182;6.284;2022-08-11T16:14:47;28.40;70.10
52159;DHT22;38145;53.182;6.284;2022-08-11T16:17:38;28.30;70.70
52159;DHT22;38145;53.182;6.284;2022-08-11T16:20:09;28.10;69.30
52159;DHT22;38145;53.182;6.284;2022-08-11T16:22:38;28.10;71.80
52159;DHT22;38145;53.182;6.284;2022-08-11T16:25:11;28.10;72.70
52159;DHT22;38145;53.182;6.284;2022-08-11T16:27:47;28.00;74.50
52159;DHT22;38145;53.182;6.284;2022-08-11T16:30:19;28.00;73.80
52159;DHT22;38145;53.182;6.284;2022-08-11T16:32:48;28.00;75.90
52159;DHT22;38145;53.182;6.284;2022-08-11T16:35:21;28.00;75.40
52159;DHT22;38145;53.182;6.284;2022-08-11T16:38:07;27.90;77.30
52159;DHT22;38145;53.182;6.284;2022-08-11T16:40:56;27.80;78.40
52159;DHT22;38145;53.182;6.284;2022-08-11T16:43:26;27.70;76.80
52159;DHT22;38145;53.182;6.284;2022-08-11T16:46:16;27.60;77.00
52159;DHT22;38145;53.182;6.284;2022-08-11T16:49:04;27.60;79.00
52159;DHT22;38145;53.182;6.284;2022-08-11T16:51:32;27.60;77.60
52159;DHT22;38145;53.182;6.284;2022-08-11T16:53:59;27.50;77.10
52159;DHT22;38145;53.182;6.284;2022-08-11T16:56:29;27.40;76.00
52159;DHT22;38145;53.182;6.284;2022-08-11T16:59:00;27.30;75.30
52159;DHT22;38145;53.182;6.284;2022-08-11T17:01:47;27.30;75.90
52159;DHT22;38145;53.182;6.284;2022-08-11T17:04:29;27.30;73.40
52159;DHT22;38145;53.182;6.284;2022-08-11T17:07:18;27.20;74.40
52159;DHT22;38145;53.182;6.284;2022-08-11T17:10:05;27.20;75.10
52159;DHT22;38145;53.182;6.284;2022-08-11T17:12:53;27.10;75.90
52159;DHT22;38145;53.182;6.284;2022-08-11T17:15:40;27.00;77.70
52159;DHT22;38145;53.182;6.284;2022-08-11T17:18:25;26.90;78.20
52159;DHT22;38145;53.182;6.284;2022-08-11T17:21:06;26.90;79.30
52159;DHT22;38145;53.182;6.284;2022-08-11T17:23:35;26.80;80.70
52159;DHT22;38145;53.182;6.284;2022-08-11T17:28:46;26.70;82.70
52159;DHT22;38145;53.182;6.284;2022-08-11T17:31:19;26.60;81.40
52159;DHT22;38145;53.182;6.284;2022-08-11T17:34:05;26.50;82.40
52159;DHT22;38145;53.182;6.284;2022-08-11T17:36:53;26.50;81.60
52159;DHT22;38145;53.182;6.284;2022-08-11T17:39:24;26.40;83.40
52159;DHT22;38145;53.182;6.284;2022-08-11T17:41:54;26.40;84.90
52159;DHT22;38145;53.182;6.284;2022-08-11T17:44:40;26.30;87.50
52159;DHT22;38145;53.182;6.284;2022-08-11T17:47:29;26.20;88.10
52159;DHT22;38145;53.182;6.284;2022-08-11T17:50:15;26.10;88.90
52159;DHT22;38145;53.182;6.284;2022-08-11T17:52:42;26.10;90.30
52159;DHT22;38145;53.182;6.284;2022-08-11T17:55:29;26.00;91.20
52159;DHT22;38145;53.182;6.284;2022-08-11T17:58:15;25.90;90.90
52159;DHT22;38145;53.182;6.284;2022-08-11T18:01:01;25.90;91.10
52159;DHT22;38145;53.182;6.284;2022-08-11T18:03:28;25.80;91.00
52159;DHT22;38145;53.182;6.284;2022-08-11T18:06:01;25.80;91.70
52159;DHT22;38145;53.182;6.284;2022-08-11T18:08:30;25.80;91.10
52159;DHT22;38145;53.182;6.284;2022-08-11T18:11:16;25.70;91.20
52159;DHT22;38145;53.182;6.284;2022-08-11T18:14:04;25.70;91.40
52159;DHT22;38145;53.182;6.284;2022-08-11T18:16:49;25.60;91.70
52159;DHT22;38145;53.182;6.284;2022-08-11T18:19:34;25.60;92.30
52159;DHT22;38145;53.182;6.284;2022-08-11T18:22:22;25.50;92.00
52159;DHT22;38145;53.182;6.284;2022-08-11T18:25:12;25.50;92.20
52159;DHT22;38145;53.182;6.284;2022-08-11T18:27:58;25.40;93.20
52159;DHT22;38145;53.182;6.284;2022-08-11T18:30:46;25.40;93.40